Time;durP1;ratioP1;P1;durP2;ratioP2;P2;SDS_P1;SDS_P2;PMS_P1;PMS_P2;Temp;Humidity;BMP_temperature;BMP_pressure;BME280_temperature;BME280_humidity;BME280_pressure;Samples;Min_cycle;Max_cycle;Signal;HPM_P1;HPM_P2
2024/03/23 00:02:29;;;;;;;71.60;41.20;;;;;;;0.24;100.00;100943.90;109633;1253;73787;-74
2024/03/23 00:04:56;;;;;;;75.50;38.10;;;;;;;0.24;100.00;100939.59;109586;1254;62756;-73
2024/03/23 00:07:24;;;;;;;60.60;34.70;;;;;;;0.22;100.00;100937.55;109599;1252;71340;-74
2024/03/23 00:09:51;;;;;;;57.40;32.60;;;;;;;0.20;100.00;100938.10;109576;1252;59794;-73
2024/03/23 00:12:19;;;;;;;54.20;31.60;;;;;;;0.17;100.00;100945.18;109608;1253;58931;-74
2024/03/23 00:16:39;;;;;;;42.90;26.00;;;;;;;0.16;100.00;100943.83;102896;1285;604174;-75
2024/03/23 00:19:06;;;;;;;58.40;32.30;;;;;;;0.16;100.00;100948.13;104858;1268;59687;-76
2024/03/23 00:21:38;;;;;;;53.30;32.10;;;;;;;0.19;100.00;100949.45;104852;1266;60059;-74
2024/03/23 00:24:06;;;;;;;56.30;31.00;;;;;;;0.20;100.00;100942.91;105595;1258;73135;-75
2024/03/23 00:26:32;;;;;;;53.40;32.10;;;;;;;0.21;100.00;100937.58;105605;1255;63585;-74
2024/03/23 00:29:00;;;;;;;54.80;30.70;;;;;;;0.20;100.00;100938.78;105414;1258;199108;-75
2024/03/23 00:31:27;;;;;;;50.30;27.90;;;;;;;0.19;100.00;100935.17;105626;1255;59857;-74
2024/03/23 00:33:54;;;;;;;52.20;30.60;;;;;;;0.18;100.00;100931.77;105747;1253;60050;-74
2024/03/23 00:36:22;;;;;;;48.50;28.60;;;;;;;0.16;100.00;100926.27;105788;1253;72074;-74
2024/03/23 00:38:48;;;;;;;45.80;28.30;;;;;;;0.11;100.00;100923.41;105657;1252;64010;-74
2024/03/23 00:41:15;;;;;;;45.90;29.70;;;;;;;0.06;100.00;100922.45;105812;1257;72489;-74
2024/03/23 00:43:42;;;;;;;44.40;26.90;;;;;;;0.01;100.00;100922.35;105653;1254;60525;-75
2024/03/23 00:46:09;;;;;;;39.90;23.50;;;;;;;-0.01;100.00;100921.33;105730;1254;60538;-75
2024/03/23 00:48:36;;;;;;;40.50;24.20;;;;;;;-0.04;100.00;100918.95;105757;1253;74831;-75
2024/03/23 00:51:04;;;;;;;36.80;23.40;;;;;;;-0.07;100.00;100919.35;105750;1257;63848;-72
2024/03/23 00:53:30;;;;;;;38.60;23.30;;;;;;;-0.08;100.00;100920.72;105766;1253;60473;-75
2024/03/23 00:55:57;;;;;;;33.00;22.40;;;;;;;-0.07;100.00;100922.77;105801;1257;61005;-74
2024/03/23 00:58:23;;;;;;;36.30;22.60;;;;;;;-0.08;100.00;100921.42;105834;1257;60509;-73
2024/03/23 01:00:50;;;;;;;46.20;24.00;;;;;;;-0.13;100.00;100920.95;105866;1253;73810;-75
2024/03/23 01:03:17;;;;;;;36.70;23.00;;;;;;;-0.21;100.00;100926.89;105843;1257;63851;-73
2024/03/23 01:05:44;;;;;;;39.50;22.40;;;;;;;-0.27;100.00;100928.83;105773;1257;72566;-74
2024/03/23 01:08:11;;;;;;;37.10;22.90;;;;;;;-0.28;100.00;100928.33;105694;1257;61189;-75
2024/03/23 01:10:38;;;;;;;37.70;23.50;;;;;;;-0.25;100.00;100926.23;105715;1252;60592;-74
2024/03/23 01:13:05;;;;;;;34.60;22.90;;;;;;;-0.22;100.00;100926.89;105652;1253;73743;-72
2024/03/23 01:15:31;;;;;;;40.80;22.90;;;;;;;-0.21;100.00;100922.06;105736;1257;60622;-74
2024/03/23 01:17:58;;;;;;;35.40;22.00;;;;;;;-0.18;100.00;100921.52;105695;1253;71392;-73
2024/03/23 01:20:24;;;;;;;31.70;20.40;;;;;;;-0.16;100.00;100920.46;105804;1258;61475;-74
2024/03/23 01:22:51;;;;;;;35.20;22.00;;;;;;;-0.17;100.00;100922.55;105824;1257;60431;-74
2024/03/23 01:25:18;;;;;;;34.20;22.00;;;;;;;-0.21;100.00;100920.70;105751;1253;73913;-72
2024/03/23 01:27:44;;;;;;;39.20;22.90;;;;;;;-0.30;100.00;100914.43;105641;1253;60617;-74
2024/03/23 01:30:13;;;;;;;34.90;21.00;;;;;;;-0.34;100.00;100922.38;105690;1257;72646;-72
2024/03/23 01:32:40;;;;;;;35.50;21.70;;;;;;;-0.34;100.00;100924.95;105761;1258;61338;-73
2024/03/23 01:35:08;;;;;;;33.70;20.70;;;;;;;-0.32;100.00;100920.81;105710;1253;60413;-73
2024/03/23 01:37:34;;;;;;;28.20;18.40;;;;;;;-0.31;100.00;100916.50;105654;1257;73914;-74
2024/03/23 01:40:01;;;;;;;31.00;20.30;;;;;;;-0.32;100.00;100910.15;105691;1257;63760;-75
2024/03/23 01:42:28;;;;;;;34.40;19.70;;;;;;;-0.34;100.00;100903.31;105780;1253;72704;-76
2024/03/23 01:44:55;;;;;;;31.90;19.70;;;;;;;-0.40;100.00;100899.27;105645;1257;61545;-75
2024/03/23 01:47:22;;;;;;;35.20;19.10;;;;;;;-0.44;100.00;100899.63;105601;1258;60527;-75
2024/03/23 01:49:49;;;;;;;36.50;21.20;;;;;;;-0.44;100.00;100902.55;105738;1254;73809;-73
2024/03/23 01:52:15;;;;;;;30.70;19.30;;;;;;;-0.43;100.00;100898.59;105614;1257;63696;-72
2024/03/23 01:54:42;;;;;;;30.40;18.70;;;;;;;-0.43;100.00;100898.75;105663;1258;73112;-75
2024/03/23 01:57:10;;;;;;;29.10;19.30;;;;;;;-0.42;100.00;100894.80;105655;1256;61109;-74
2024/03/23 01:59:36;;;;;;;31.20;19.70;;;;;;;-0.43;100.00;100896.87;105664;1253;60416;-74
2024/03/23 02:02:03;;;;;;;33.80;20.40;;;;;;;-0.42;100.00;100892.56;105644;1253;72432;-76
2024/03/23 02:04:30;;;;;;;33.20;19.20;;;;;;;-0.41;100.00;100886.38;105736;1258;63984;-75
2024/03/23 02:06:57;;;;;;;30.60;19.50;;;;;;;-0.39;100.00;100890.15;105699;1253;72758;-72
2024/03/23 02:09:24;;;;;;;30.80;19.30;;;;;;;-0.41;100.00;100891.02;105720;1257;60954;-73
2024/03/23 02:11:51;;;;;;;31.60;19.10;;;;;;;-0.46;100.00;100884.38;105648;1253;60617;-75
2024/03/23 02:14:18;;;;;;;30.70;20.20;;;;;;;-0.51;100.00;100884.27;105609;1257;73790;-73
2024/03/23 02:16:46;;;;;;;33.40;19.70;;;;;;;-0.55;100.00;100887.38;105627;1253;60532;-73
2024/03/23 02:19:12;;;;;;;34.40;21.80;;;;;;;-0.58;100.00;100879.16;105571;1253;72912;-76
2024/03/23 02:21:39;;;;;;;78.80;65.70;;;;;;;-0.59;100.00;100879.52;105663;1253;60517;-75
2024/03/23 02:24:06;;;;;;;33.30;25.40;;;;;;;-0.62;100.00;100875.77;105742;1258;60515;-75
2024/03/23 02:26:32;;;;;;;37.60;27.20;;;;;;;-0.66;100.00;100874.27;105625;1257;73756;-75
2024/03/23 02:28:59;;;;;;;34.50;24.30;;;;;;;-0.68;100.00;100876.34;105651;1256;63990;-74
2024/03/23 02:31:26;;;;;;;69.10;36.00;;;;;;;-0.73;100.00;100878.10;105664;1253;72620;-75
2024/03/23 02:33:53;;;;;;;37.30;20.40;;;;;;;-0.74;100.00;100874.17;105684;1253;60535;-76
2024/03/23 02:36:21;;;;;;;33.60;21.10;;;;;;;-0.76;100.00;100878.48;105735;1253;60521;-75
2024/03/23 02:38:47;;;;;;;37.70;20.50;;;;;;;-0.78;100.00;100878.31;105722;1257;73864;-74
2024/03/23 02:41:15;;;;;;;34.90;21.30;;;;;;;-0.78;100.00;100878.84;105736;1258;62926;-74
2024/03/23 02:43:41;;;;;;;35.20;20.70;;;;;;;-0.79;100.00;100875.06;105763;1253;72394;-75
2024/03/23 02:46:08;;;;;;;35.00;21.50;;;;;;;-0.79;100.00;100875.08;105725;1257;60458;-75
2024/03/23 02:48:36;;;;;;;40.50;24.20;;;;;;;-0.80;100.00;100871.82;105780;1253;60448;-74
2024/03/23 02:51:03;;;;;;;34.90;21.40;;;;;;;-0.81;100.00;100865.66;105687;1258;73527;-74
2024/03/23 02:53:30;;;;;;;34.80;20.80;;;;;;;-0.82;100.00;100866.35;105710;1257;63877;-74
2024/03/23 02:56:00;;;;;;;32.90;20.30;;;;;;;-0.82;100.00;100869.10;105680;1258;71617;-74
2024/03/23 02:58:26;;;;;;;30.30;19.50;;;;;;;-0.81;100.00;100871.50;105732;1253;60846;-75
2024/03/23 03:00:54;;;;;;;35.40;20.70;;;;;;;-0.80;100.00;100872.16;105726;1253;60562;-72
2024/03/23 03:03:21;;;;;;;34.80;21.80;;;;;;;-0.78;100.00;100871.98;105714;1258;73846;-74
2024/03/23 03:05:47;;;;;;;33.80;21.20;;;;;;;-0.77;100.00;100876.08;105833;1258;63612;-73
2024/03/23 03:08:17;;;;;;;36.00;19.50;;;;;;;-0.76;100.00;100873.50;105775;1256;71662;-74
2024/03/23 03:10:43;;;;;;;42.80;20.00;;;;;;;-0.76;100.00;100873.33;105803;1257;61221;-75
2024/03/23 03:13:10;;;;;;;31.30;19.50;;;;;;;-0.76;100.00;100876.42;105705;1256;60332;-75
2024/03/23 03:15:37;;;;;;;33.70;19.50;;;;;;;-0.78;100.00;100881.24;105619;1253;73596;-74
2024/03/23 03:18:03;;;;;;;37.10;21.30;;;;;;;-0.80;100.00;100880.92;105722;1255;62755;-76
2024/03/23 03:20:31;;;;;;;36.30;23.10;;;;;;;-0.83;100.00;100879.57;105708;1256;72804;-75
2024/03/23 03:22:58;;;;;;;33.20;21.80;;;;;;;-0.84;100.00;100888.51;105624;1258;60930;-74
2024/03/23 03:25:25;;;;;;;30.70;19.90;;;;;;;-0.86;100.00;100889.38;105644;1253;60399;-72
2024/03/23 03:27:52;;;;;;;34.70;20.50;;;;;;;-0.87;100.00;100886.83;105676;1253;73699;-74
2024/03/23 03:30:18;;;;;;;31.10;20.50;;;;;;;-0.88;100.00;100892.83;105737;1257;62770;-74
2024/03/23 03:32:45;;;;;;;34.10;19.50;;;;;;;-0.88;100.00;100890.60;105680;1253;72497;-74
2024/03/23 03:35:12;;;;;;;32.20;20.90;;;;;;;-0.88;100.00;100887.69;105620;1258;61057;-75
2024/03/23 03:37:38;;;;;;;30.80;19.50;;;;;;;-0.87;100.00;100883.39;105664;1257;60418;-74
2024/03/23 03:40:08;;;;;;;31.30;21.40;;;;;;;-0.87;100.00;100879.44;105617;1257;73845;-76
2024/03/23 03:42:36;;;;;;;34.00;20.80;;;;;;;-0.91;100.00;100877.58;105709;1253;64076;-73
2024/03/23 03:45:04;;;;;;;32.90;20.00;;;;;;;-0.93;100.00;100871.60;105748;1253;71803;-76
2024/03/23 03:47:32;;;;;;;28.80;18.90;;;;;;;-0.90;100.00;100874.84;105797;1258;61060;-75
2024/03/23 03:50:00;;;;;;;31.40;19.00;;;;;;;-0.86;100.00;100875.14;105774;1253;60413;-74
2024/03/23 03:52:26;;;;;;;34.30;20.70;;;;;;;-0.83;100.00;100876.48;105812;1257;73802;-74
2024/03/23 03:54:59;;;;;;;27.40;18.10;;;;;;;-0.79;100.00;100872.34;105736;1257;60430;-75
2024/03/23 03:57:26;;;;;;;34.70;20.00;;;;;;;-0.79;100.00;100869.60;105687;1253;71696;-76
2024/03/23 03:59:53;;;;;;;42.60;23.00;;;;;;;-0.77;100.00;100868.36;105641;1258;61215;-74
2024/03/23 04:02:19;;;;;;;40.00;22.40;;;;;;;-0.74;100.00;100871.95;105729;1253;60448;-73
2024/03/23 04:04:47;;;;;;;35.60;23.50;;;;;;;-0.68;100.00;100874.47;105646;1253;73650;-74
2024/03/23 04:07:14;;;;;;;34.90;21.10;;;;;;;-0.65;100.00;100873.39;105806;1259;64017;-75
2024/03/23 04:09:42;;;;;;;39.20;22.50;;;;;;;-0.60;100.00;100874.73;105737;1257;72605;-74
2024/03/23 04:12:09;;;;;;;38.10;22.60;;;;;;;-0.56;100.00;100875.70;105694;1257;61192;-74
2024/03/23 04:14:35;;;;;;;37.70;23.00;;;;;;;-0.53;100.00;100876.72;105823;1253;60541;-75
2024/03/23 04:17:02;;;;;;;37.10;22.60;;;;;;;-0.51;100.00;100876.86;105779;1254;73833;-75
2024/03/23 04:19:30;;;;;;;34.30;22.80;;;;;;;-0.48;100.00;100878.73;105694;1258;62594;-74
2024/03/23 04:21:56;;;;;;;36.60;20.90;;;;;;;-0.43;100.00;100880.55;105412;1256;61251;-75
2024/03/23 04:24:22;;;;;;;34.20;21.00;;;;;;;-0.37;100.00;100879.13;105431;1256;61338;-76
2024/03/23 04:26:49;;;;;;;32.20;20.70;;;;;;;-0.30;100.00;100878.88;105540;1254;61313;-74
2024/03/23 04:29:16;;;;;;;36.80;22.70;;;;;;;-0.22;100.00;100877.75;105670;1256;74701;-73
2024/03/23 04:31:43;;;;;;;34.80;21.00;;;;;;;-0.14;100.00;100883.34;105565;1258;63673;-75
2024/03/23 04:34:10;;;;;;;31.40;22.40;;;;;;;-0.08;100.00;100886.00;105456;1258;61213;-77
2024/03/23 04:36:36;;;;;;;37.60;22.80;;;;;;;-0.02;100.00;100883.53;105503;1258;61175;-74
2024/03/23 04:39:03;;;;;;;43.10;25.40;;;;;;;0.07;100.00;100883.08;105515;1256;61266;-74
2024/03/23 04:41:31;;;;;;;34.10;21.30;;;;;;;0.15;100.00;100886.08;105513;1256;74641;-76
2024/03/23 04:43:58;;;;;;;33.70;22.10;;;;;;;0.22;100.00;100884.09;105685;1258;63817;-75
2024/03/23 04:46:24;;;;;;;36.20;23.80;;;;;;;0.32;100.00;100882.75;105593;1256;61219;-74
2024/03/23 04:48:51;;;;;;;40.70;25.90;;;;;;;0.44;100.00;100883.95;105655;1258;61250;-75
2024/03/23 04:51:25;;;;;;;42.60;26.10;;;;;;;0.57;100.00;100881.70;105638;1256;61325;-76
2024/03/23 04:53:52;;;;;;;41.00;25.60;;;;;;;0.74;100.00;100882.15;105511;1258;74705;-76
2024/03/23 04:56:19;;;;;;;37.80;25.90;;;;;;;0.91;100.00;100880.68;105543;1255;63690;-75
2024/03/23 04:58:46;;;;;;;42.50;29.20;;;;;;;1.19;100.00;100881.79;105636;1258;72665;-74
2024/03/23 05:01:13;;;;;;;42.30;28.50;;;;;;;1.61;100.00;100889.64;105521;1254;61962;-75
2024/03/23 05:03:40;;;;;;;50.50;29.00;;;;;;;2.17;100.00;100895.25;105475;1254;61151;-75
2024/03/23 05:06:06;;;;;;;52.70;28.50;;;;;;;2.79;100.00;100895.59;105562;1258;73543;-76
2024/03/23 05:08:34;;;;;;;41.60;26.20;;;;;;;3.43;100.00;100889.54;105763;1258;63787;-75
2024/03/23 05:11:02;;;;;;;31.70;23.10;;;;;;;4.11;100.00;100888.38;105579;1256;71398;-76
2024/03/23 05:13:29;;;;;;;34.40;22.40;;;;;;;4.77;100.00;100891.05;105612;1258;61208;-76
2024/03/23 05:15:56;;;;;;;34.60;23.30;;;;;;;5.37;100.00;100892.55;105579;1258;61190;-76
2024/03/23 05:18:22;;;;;;;31.60;22.90;;;;;;;5.95;100.00;100896.60;105592;1258;61157;-76
2024/03/23 05:20:49;;;;;;;25.30;20.60;;;;;;;6.52;100.00;100902.98;105583;1258;61292;-76
2024/03/23 05:23:15;;;;;;;25.40;19.10;;;;;;;7.00;100.00;100901.27;105600;1255;61324;-75
2024/03/23 05:25:42;;;;;;;25.70;18.10;;;;;;;7.42;100.00;100896.05;105574;1254;61248;-76
2024/03/23 05:28:09;;;;;;;25.90;17.90;;;;;;;7.76;100.00;100900.17;105857;1254;61280;-75
2024/03/23 05:30:36;;;;;;;31.70;21.80;;;;;;;8.03;100.00;100897.05;106500;1258;74610;-76
2024/03/23 05:33:02;;;;;;;31.60;22.70;;;;;;;8.32;100.00;100896.13;105903;1258;64111;-74
2024/03/23 05:35:30;;;;;;;29.50;21.30;;;;;;;8.58;100.00;100893.18;105572;1256;73108;-75
2024/03/23 05:37:58;;;;;;;30.60;20.90;;;;;;;8.82;100.00;100896.02;105620;1258;61328;-77
2024/03/23 05:40:28;;;;;;;26.60;20.30;;;;;;;9.13;100.00;100895.04;105624;1257;61228;-76
2024/03/23 05:42:55;;;;;;;24.10;18.60;;;;;;;9.53;100.00;100896.04;105526;1258;74497;-75
2024/03/23 05:45:22;;;;;;;22.90;18.80;;;;;;;9.97;99.90;100893.58;105706;1258;63714;-76
2024/03/23 05:47:49;;;;;;;20.40;16.60;;;;;;;10.40;96.45;100890.39;105511;1258;72379;-76
2024/03/23 05:50:16;;;;;;;19.00;16.00;;;;;;;10.80;87.76;100889.72;105489;1258;61332;-75
2024/03/23 05:52:43;;;;;;;25.20;21.50;;;;;;;11.11;80.97;100882.57;105616;1254;61251;-76
2024/03/23 05:55:10;;;;;;;21.80;15.00;;;;;;;11.44;79.23;100877.28;105559;1258;74802;-76
2024/03/23 05:57:37;;;;;;;15.70;14.10;;;;;;;11.80;74.30;100883.39;105441;1258;62821;-76
2024/03/23 06:00:04;;;;;;;18.30;13.80;;;;;;;12.12;70.21;100879.69;105489;1254;72553;-76
2024/03/23 06:02:38;;;;;;;;;;;;;;;12.46;67.28;100879.33;105564;1258;61148;-76
2024/03/23 06:05:05;;;;;;;16.50;14.30;;;;;;;12.77;64.25;100878.01;105529;1258;61192;-75
2024/03/23 06:07:31;;;;;;;16.80;13.60;;;;;;;13.04;61.23;100876.21;105546;1258;75232;-77
2024/03/23 06:09:58;;;;;;;16.60;14.10;;;;;;;13.33;57.13;100873.09;105484;1254;62376;-76
2024/03/23 06:12:25;;;;;;;16.80;14.30;;;;;;;13.57;55.07;100874.64;105620;1256;72518;-76
2024/03/23 06:14:53;;;;;;;17.80;13.60;;;;;;;13.85;54.61;100871.84;105737;1258;61334;-78
2024/03/23 06:17:19;;;;;;;17.30;13.50;;;;;;;14.13;53.04;100876.55;105665;1256;61215;-77
2024/03/23 06:19:46;;;;;;;18.00;13.70;;;;;;;14.45;52.01;100875.69;105752;1256;61328;-78
2024/03/23 06:22:13;;;;;;;17.30;13.80;;;;;;;14.74;51.03;100876.55;105704;1257;63869;-76
2024/03/23 06:24:39;;;;;;;18.80;13.90;;;;;;;14.99;50.87;100870.19;105681;1256;72717;-77
2024/03/23 06:27:06;;;;;;;16.10;14.30;;;;;;;15.17;49.36;100865.16;105695;1258;61146;-77
2024/03/23 06:29:32;;;;;;;20.90;13.50;;;;;;;15.37;48.20;100864.84;105621;1256;61245;-76
2024/03/23 06:32:00;;;;;;;15.20;13.50;;;;;;;15.66;47.26;100864.54;105714;1256;74812;-77
2024/03/23 06:34:27;;;;;;;16.20;14.50;;;;;;;15.90;46.33;100861.11;105692;1258;63964;-75
2024/03/23 06:36:53;;;;;;;17.40;13.70;;;;;;;16.12;45.99;100864.31;105704;1256;71357;-78
2024/03/23 06:39:20;;;;;;;21.60;16.80;;;;;;;16.32;45.25;100863.45;105706;1268;61312;-75
2024/03/23 06:41:53;;;;;;;21.40;17.70;;;;;;;16.45;44.27;100860.43;105644;1254;61264;-75
2024/03/23 06:44:20;;;;;;;23.50;19.50;;;;;;;16.59;44.34;100856.30;105711;1256;74626;-78
2024/03/23 06:46:48;;;;;;;20.40;16.70;;;;;;;16.77;42.87;100862.65;105710;1258;63950;-77
2024/03/23 06:49:15;;;;;;;27.70;19.90;;;;;;;16.88;42.21;100861.21;105783;1254;73398;-78
2024/03/23 06:51:45;;;;;;;27.30;20.90;;;;;;;17.06;42.54;100859.38;105744;1258;61253;-78
2024/03/23 06:54:12;;;;;;;22.70;19.10;;;;;;;17.26;42.39;100857.36;105753;1256;61280;-79
2024/03/23 06:56:38;;;;;;;22.10;18.30;;;;;;;17.44;41.33;100858.66;105654;1258;74903;-78
2024/03/23 06:59:06;;;;;;;19.60;16.40;;;;;;;17.51;41.01;100856.98;105693;1258;63990;-77
2024/03/23 07:01:35;;;;;;;20.00;16.50;;;;;;;17.65;40.92;100855.83;105745;1258;72481;-78
2024/03/23 07:04:03;;;;;;;19.40;16.30;;;;;;;17.84;40.73;100861.13;105791;1258;61333;-76
2024/03/23 07:06:31;;;;;;;22.80;16.70;;;;;;;18.01;40.47;100857.88;105738;1256;61319;-77
2024/03/23 07:08:57;;;;;;;18.50;16.60;;;;;;;18.12;40.10;100857.02;105699;1256;74653;-78
2024/03/23 07:11:24;;;;;;;15.50;14.00;;;;;;;18.30;40.15;100858.47;105653;1258;64368;-76
2024/03/23 07:13:52;;;;;;;16.00;13.90;;;;;;;18.54;39.95;100858.81;105651;1256;72670;-76
2024/03/23 07:16:19;;;;;;;16.50;14.30;;;;;;;18.71;39.62;100856.40;105635;1258;61872;-77
2024/03/23 07:18:46;;;;;;;17.20;15.50;;;;;;;18.86;39.38;100855.77;105661;1256;61351;-78
2024/03/23 07:21:15;;;;;;;15.80;14.30;;;;;;;19.04;38.97;100853.77;105733;1256;73651;-77
2024/03/23 07:23:44;;;;;;;17.70;14.80;;;;;;;19.11;38.14;100850.35;105545;1258;63779;-78
2024/03/23 07:26:11;;;;;;;17.50;15.60;;;;;;;19.21;38.11;100846.00;105751;1254;72729;-78
2024/03/23 07:28:42;;;;;;;18.80;15.60;;;;;;;19.36;37.91;100846.34;105731;1258;61435;-77
2024/03/23 07:31:11;;;;;;;16.70;14.70;;;;;;;19.56;37.34;100846.95;105810;1259;61145;-76
2024/03/23 07:33:42;;;;;;;24.90;18.00;;;;;;;19.66;37.30;100848.14;105734;1258;74729;-76
2024/03/23 07:36:09;;;;;;;32.10;19.20;;;;;;;19.66;36.46;100841.25;105871;1256;63848;-76
2024/03/23 07:38:36;;;;;;;21.90;18.60;;;;;;;19.72;36.58;100839.65;105858;1256;72611;-78
2024/03/23 07:41:09;;;;;;;23.50;17.90;;;;;;;19.85;36.68;100837.89;105658;1254;61301;-75
2024/03/23 07:43:37;;;;;;;16.80;14.90;;;;;;;20.00;36.39;100838.41;105808;1258;61231;-75
2024/03/23 07:46:04;;;;;;;20.00;16.60;;;;;;;19.96;36.52;100839.48;105703;1259;73421;-77
2024/03/23 07:48:31;;;;;;;21.80;16.30;;;;;;;20.00;35.92;100841.56;105744;1258;63726;-76
2024/03/23 07:51:02;;;;;;;20.50;17.10;;;;;;;20.12;35.79;100840.09;105812;1258;72646;-77
2024/03/23 07:53:29;;;;;;;20.10;16.90;;;;;;;20.19;35.81;100839.88;105937;1258;61444;-76
2024/03/23 07:55:59;;;;;;;22.00;17.40;;;;;;;20.28;36.03;100835.11;105948;1256;61289;-76
2024/03/23 07:58:27;;;;;;;18.00;15.60;;;;;;;20.34;34.83;100833.85;105800;1257;74588;-76
2024/03/23 08:00:58;;;;;;;21.90;16.60;;;;;;;20.30;34.19;100829.78;105665;1257;63710;-77
2024/03/23 08:03:25;;;;;;;25.10;18.40;;;;;;;20.30;34.06;100828.21;105505;1255;72572;-75
2024/03/23 08:05:52;;;;;;;26.40;18.30;;;;;;;20.30;34.05;100828.89;105747;1258;61321;-76
2024/03/23 08:08:19;;;;;;;26.40;18.60;;;;;;;20.35;34.12;100822.79;105723;1256;61302;-77
2024/03/23 08:10:53;;;;;;;21.20;17.90;;;;;;;20.34;33.82;100821.83;105637;1258;73450;-76
2024/03/23 08:13:20;;;;;;;20.50;15.30;;;;;;;20.19;33.74;100818.75;105725;1258;63950;-76
2024/03/23 08:15:47;;;;;;;19.70;15.00;;;;;;;20.05;33.90;100817.81;106062;1256;72695;-78
2024/03/23 08:18:15;;;;;;;16.40;14.10;;;;;;;20.02;34.12;100813.86;105643;1257;61209;-74
2024/03/23 08:20:42;;;;;;;17.00;15.10;;;;;;;20.03;34.63;100806.61;105717;1259;61228;-77
2024/03/23 08:23:09;;;;;;;18.90;16.40;;;;;;;20.00;34.87;100811.07;105668;1268;75038;-76
2024/03/23 08:25:36;;;;;;;18.00;16.00;;;;;;;20.02;34.65;100807.28;105747;1258;63769;-75
2024/03/23 08:28:03;;;;;;;18.90;15.50;;;;;;;20.03;34.25;100808.75;105640;1258;72344;-75
2024/03/23 08:30:31;;;;;;;17.90;16.00;;;;;;;19.99;34.22;100801.34;105687;1258;61119;-76
2024/03/23 08:32:59;;;;;;;16.60;15.00;;;;;;;19.92;34.42;100801.78;105731;1258;61282;-75
2024/03/23 08:35:25;;;;;;;17.30;15.60;;;;;;;19.84;34.13;100801.39;105709;1256;74631;-76
2024/03/23 08:37:53;;;;;;;16.00;14.00;;;;;;;19.58;34.17;100797.34;105655;1258;62566;-74
2024/03/23 08:40:19;;;;;;;16.70;15.00;;;;;;;19.30;34.36;100796.26;105702;1258;72735;-76
2024/03/23 08:42:46;;;;;;;17.30;15.20;;;;;;;19.16;34.77;100795.26;105654;1260;61229;-76
2024/03/23 08:45:13;;;;;;;19.80;14.80;;;;;;;19.18;35.08;100792.02;105748;1258;61675;-75
2024/03/23 08:47:40;;;;;;;18.10;14.20;;;;;;;19.26;35.20;100787.43;105800;1258;74833;-73
2024/03/23 08:50:07;;;;;;;18.70;15.30;;;;;;;19.19;34.61;100786.80;105741;1258;65690;-77
2024/03/23 08:52:34;;;;;;;16.40;14.60;;;;;;;19.09;34.98;100781.42;105780;1257;71713;-76
2024/03/23 08:55:05;;;;;;;18.60;14.50;;;;;;;19.08;35.09;100780.76;105730;1257;61229;-75
2024/03/23 08:57:33;;;;;;;16.40;13.20;;;;;;;19.10;35.01;100777.57;105729;1259;61293;-77
2024/03/23 09:00:02;;;;;;;15.60;13.80;;;;;;;19.18;34.79;100774.10;105742;1258;73449;-76
2024/03/23 09:02:30;;;;;;;13.50;12.20;;;;;;;19.16;34.39;100776.96;105701;1257;63872;-77
2024/03/23 09:05:03;;;;;;;13.40;11.60;;;;;;;19.20;34.44;100771.16;105658;1254;70412;-77
2024/03/23 09:07:31;;;;;;;12.30;11.10;;;;;;;19.28;33.77;100767.85;105725;1267;61377;-76
2024/03/23 09:09:59;;;;;;;12.10;10.90;;;;;;;19.36;33.93;100764.81;105661;1254;61258;-75
2024/03/23 09:12:26;;;;;;;11.20;10.10;;;;;;;19.47;34.58;100761.16;105758;1260;76441;-76
2024/03/23 09:14:53;;;;;;;12.60;10.70;;;;;;;19.56;34.48;100762.20;106553;1260;64994;-75
2024/03/23 09:17:20;;;;;;;13.10;11.60;;;;;;;19.80;33.92;100761.05;106114;1260;72474;-73
2024/03/23 09:19:47;;;;;;;11.90;10.70;;;;;;;20.03;33.25;100759.96;105851;1257;61247;-75
2024/03/23 09:22:14;;;;;;;16.20;13.20;;;;;;;20.20;32.43;100759.00;105754;1257;61241;-76
2024/03/23 09:24:41;;;;;;;13.40;11.30;;;;;;;20.24;32.38;100757.77;105750;1260;74907;-75
2024/03/23 09:27:10;;;;;;;14.10;11.10;;;;;;;20.22;32.46;100753.36;105667;1258;62780;-75
2024/03/23 09:29:37;;;;;;;14.00;12.60;;;;;;;20.06;32.41;100755.49;105724;1259;72670;-77
2024/03/23 09:32:04;;;;;;;13.30;12.00;;;;;;;19.99;32.99;100756.48;105823;1259;61162;-77
2024/03/23 09:34:34;;;;;;;11.00;9.90;;;;;;;20.11;32.94;100750.92;105877;1253;61273;-74
2024/03/23 09:37:01;;;;;;;13.70;12.20;;;;;;;20.31;32.92;100743.63;106343;1257;74617;-75
2024/03/23 09:39:28;;;;;;;14.10;12.20;;;;;;;20.33;33.17;100742.67;105789;1258;64233;-76
2024/03/23 09:41:58;;;;;;;13.10;11.80;;;;;;;20.33;33.70;100738.39;105770;1254;72671;-77
2024/03/23 09:44:26;;;;;;;12.60;11.30;;;;;;;20.49;33.19;100732.42;105781;1254;61411;-75
2024/03/23 09:46:52;;;;;;;14.20;12.60;;;;;;;20.52;31.99;100724.96;105702;1259;61227;-78
2024/03/23 09:49:19;;;;;;;14.40;13.00;;;;;;;20.42;32.04;100728.07;105572;1258;73797;-77
2024/03/23 09:51:45;;;;;;;14.50;13.00;;;;;;;20.33;33.18;100722.40;105549;1263;62499;-77
2024/03/23 09:54:12;;;;;;;15.40;13.50;;;;;;;20.38;33.66;100722.27;105961;1253;72465;-76
2024/03/23 09:56:39;;;;;;;13.40;12.00;;;;;;;20.48;33.38;100716.64;105694;1259;61218;-76
2024/03/23 09:59:09;;;;;;;19.90;12.30;;;;;;;20.58;33.49;100712.50;105743;1259;61253;-74
2024/03/23 10:01:36;;;;;;;12.20;11.10;;;;;;;20.65;33.14;100711.27;105696;1259;73424;-76
2024/03/23 10:04:03;;;;;;;11.90;10.70;;;;;;;20.76;33.43;100712.11;105740;1258;62967;-75
2024/03/23 10:06:30;;;;;;;13.80;11.40;;;;;;;20.96;33.09;100712.03;105795;1259;71637;-77
2024/03/23 10:08:56;;;;;;;11.10;10.00;;;;;;;21.01;32.46;100709.56;105710;1258;61283;-77
2024/03/23 10:11:25;;;;;;;10.50;9.50;;;;;;;21.03;32.26;100706.14;105674;1267;62588;-78
2024/03/23 10:13:52;;;;;;;12.40;10.40;;;;;;;21.12;31.60;100703.76;105740;1258;72444;-77
2024/03/23 10:16:26;;;;;;;10.70;9.70;;;;;;;21.15;31.31;100703.19;105678;1263;62797;-75
2024/03/23 10:18:57;;;;;;;10.90;9.80;;;;;;;21.21;31.47;100694.20;105748;1259;73723;-77
2024/03/23 10:21:24;;;;;;;12.90;10.50;;;;;;;21.31;31.75;100690.38;105709;1254;61320;-78
2024/03/23 10:23:51;;;;;;;9.60;8.50;;;;;;;21.31;31.02;100687.91;105700;1258;61264;-77
2024/03/23 10:26:27;;;;;;;9.70;8.80;;;;;;;21.31;31.27;100678.12;105534;1262;74510;-77
2024/03/23 10:29:07;;;;;;;10.90;9.90;;;;;;;21.30;31.00;100681.58;106128;1258;65181;-77
2024/03/23 10:31:37;;;;;;;14.00;9.80;;;;;;;21.22;30.77;100680.57;105629;1254;73357;-78
2024/03/23 10:34:04;;;;;;;10.30;9.40;;;;;;;21.01;31.45;100673.60;105497;1260;61407;-77
2024/03/23 10:36:31;;;;;;;10.20;9.10;;;;;;;20.91;31.67;100670.55;105629;1255;61393;-75
2024/03/23 10:38:58;;;;;;;10.70;9.20;;;;;;;20.88;31.22;100667.33;105693;1258;75988;-76
2024/03/23 10:41:29;;;;;;;11.40;9.30;;;;;;;20.81;31.70;100664.14;105344;1262;63970;-78
2024/03/23 10:43:57;;;;;;;12.10;9.50;;;;;;;20.81;31.79;100659.57;105667;1267;73367;-75
2024/03/23 10:46:24;;;;;;;10.80;9.50;;;;;;;20.80;31.40;100656.73;105642;1258;61332;-76
2024/03/23 10:48:51;;;;;;;13.10;10.70;;;;;;;20.78;31.80;100660.02;105728;1258;61317;-76
2024/03/23 10:51:17;;;;;;;11.40;9.50;;;;;;;20.64;31.62;100653.77;105701;1260;74675;-76
2024/03/23 10:53:44;;;;;;;13.80;9.90;;;;;;;20.51;32.03;100648.71;105649;1254;63656;-76
2024/03/23 10:56:11;;;;;;;10.50;9.20;;;;;;;20.39;31.49;100644.40;105652;1259;72438;-75
2024/03/23 10:58:46;;;;;;;10.70;9.60;;;;;;;20.13;31.58;100640.58;105723;1268;61338;-77
2024/03/23 11:01:13;;;;;;;15.10;12.40;;;;;;;19.87;32.01;100641.04;105755;1255;61350;-75
2024/03/23 11:03:47;;;;;;;14.60;11.30;;;;;;;19.79;33.05;100638.87;105659;1255;73241;-76